Time;durP1;ratioP1;P1;durP2;ratioP2;P2;SDS_P1;SDS_P2;PMS_P1;PMS_P2;Temp;Humidity;BMP_temperature;BMP_pressure;BME280_temperature;BME280_humidity;BME280_pressure;Samples;Min_cycle;Max_cycle;Signal;HPM_P1;HPM_P2
2022/11/14 00:00:08;;;;;;;2.50;2.00;;;12.70;99.90;;;;;;5092088;28;20051;-76
2022/11/14 00:02:35;;;;;;;2.60;2.10;;;12.70;99.90;;;;;;5092116;28;20048;-77
2022/11/14 00:05:00;;;;;;;3.00;2.20;;;12.70;99.90;;;;;;5095651;28;20032;-76
2022/11/14 00:07:29;;;;;;;4.25;2.35;;;12.70;99.90;;;;;;5095936;28;20035;-76
2022/11/14 00:09:55;;;;;;;2.45;2.25;;;12.60;99.90;;;;;;5096303;28;20071;-77
2022/11/14 00:12:20;;;;;;;2.47;1.90;;;12.60;99.90;;;;;;5095265;28;20055;-76
2022/11/14 00:14:46;;;;;;;2.40;1.92;;;12.50;99.90;;;;;;5095658;28;20440;-76
2022/11/14 00:17:12;;;;;;;4.00;2.00;;;12.50;99.90;;;;;;5095750;28;20024;-76
2022/11/14 00:19:37;;;;;;;2.50;2.15;;;12.40;99.90;;;;;;5095660;28;20497;-77
2022/11/14 00:22:03;;;;;;;2.85;2.00;;;12.30;99.90;;;;;;5095706;28;20020;-76
2022/11/14 00:24:29;;;;;;;2.30;2.10;;;12.40;99.90;;;;;;5095528;28;20051;-77
2022/11/14 00:26:54;;;;;;;2.20;1.98;;;12.30;99.90;;;;;;5093987;28;20393;-77
2022/11/14 00:29:20;;;;;;;3.08;2.00;;;12.30;99.90;;;;;;5095838;28;20030;-76
2022/11/14 00:31:46;;;;;;;2.33;2.10;;;12.40;99.90;;;;;;5095359;28;20024;-76
2022/11/14 00:34:11;;;;;;;2.30;2.10;;;12.40;99.90;;;;;;5095478;28;20551;-77
2022/11/14 00:36:37;;;;;;;2.00;1.80;;;12.30;99.90;;;;;;5095221;28;20036;-76
2022/11/14 00:39:03;;;;;;;2.35;2.13;;;12.20;99.90;;;;;;5095631;28;20118;-76
2022/11/14 00:41:28;;;;;;;3.38;2.25;;;12.20;99.90;;;;;;5100556;28;20050;-76
2022/11/14 00:43:54;;;;;;;1.98;1.65;;;12.20;99.90;;;;;;5102086;28;20405;-76
2022/11/14 00:46:20;;;;;;;2.50;2.30;;;12.20;99.90;;;;;;5093739;28;20103;-76
2022/11/14 00:48:45;;;;;;;2.50;1.85;;;12.00;99.90;;;;;;5095099;28;20484;-77
2022/11/14 00:51:11;;;;;;;1.98;1.88;;;12.00;99.90;;;;;;5094914;28;20031;-76
2022/11/14 00:53:37;;;;;;;2.17;2.00;;;12.00;99.90;;;;;;5095152;28;20028;-76
2022/11/14 00:56:03;;;;;;;1.80;1.70;;;12.20;99.90;;;;;;5094875;28;20103;-76
2022/11/14 00:58:29;;;;;;;3.00;1.80;;;12.10;99.90;;;;;;5094896;28;20051;-76
2022/11/14 01:00:54;;;;;;;2.67;1.90;;;12.10;99.90;;;;;;5095011;28;20525;-76
2022/11/14 01:03:20;;;;;;;2.33;2.13;;;12.20;99.90;;;;;;5093776;28;20474;-77
2022/11/14 01:05:48;;;;;;;2.47;2.20;;;12.20;99.90;;;;;;5094841;28;20028;-76
2022/11/14 01:08:15;;;;;;;2.17;1.75;;;12.10;99.90;;;;;;5094794;28;20028;-76
2022/11/14 01:10:43;;;;;;;2.35;2.15;;;12.10;99.90;;;;;;5094741;28;20034;-76
2022/11/14 01:13:09;;;;;;;2.13;1.92;;;12.10;99.90;;;;;;5094592;28;20046;-77
2022/11/14 01:15:43;;;;;;;2.05;1.80;;;12.10;99.90;;;;;;5094165;28;20031;-76
2022/11/14 01:18:15;;;;;;;3.13;2.10;;;12.10;99.90;;;;;;5094868;28;20035;-77
2022/11/14 01:20:43;;;;;;;1.98;1.77;;;12.00;99.90;;;;;;5093255;28;20024;-76
2022/11/14 01:23:10;;;;;;;2.15;1.80;;;12.00;99.90;;;;;;5094479;28;20043;-76
2022/11/14 01:25:37;;;;;;;2.30;2.10;;;11.90;99.90;;;;;;5094260;28;20043;-76
2022/11/14 01:28:08;;;;;;;2.45;2.00;;;11.90;99.90;;;;;;5093144;28;20028;-76
2022/11/14 01:30:34;;;;;;;2.00;1.90;;;11.80;99.90;;;;;;5094860;28;20046;-76
2022/11/14 01:32:59;;;;;;;2.70;2.15;;;11.80;99.90;;;;;;5094379;28;20473;-76
2022/11/14 01:35:25;;;;;;;1.92;1.75;;;11.70;99.90;;;;;;5094150;28;20103;-76
2022/11/14 01:37:51;;;;;;;2.30;2.10;;;11.70;99.90;;;;;;5094005;28;20374;-77
2022/11/14 01:40:16;;;;;;;2.10;1.90;;;11.70;99.90;;;;;;5093880;28;20023;-76
2022/11/14 01:43:02;;;;;;;2.13;1.88;;;11.60;99.90;;;;;;5106008;28;20546;-76
2022/11/14 01:46:00;;;;;;;1.77;1.65;;;11.50;99.90;;;;;;5093825;28;20498;-76
2022/11/14 01:48:51;;;;;;;2.00;1.80;;;11.60;99.90;;;;;;5093891;28;20031;-76
2022/11/14 01:51:31;;;;;;;2.00;1.80;;;11.70;99.90;;;;;;5093906;28;20050;-76
2022/11/14 01:54:01;;;;;;;2.60;1.58;;;11.60;99.90;;;;;;5093868;28;20028;-76
2022/11/14 01:56:37;;;;;;;1.88;1.70;;;11.60;99.90;;;;;;5094103;28;20054;-76
2022/11/14 01:59:08;;;;;;;1.70;1.60;;;11.50;99.90;;;;;;5094126;28;20031;-76
2022/11/14 02:01:39;;;;;;;2.75;1.88;;;11.40;99.90;;;;;;5093918;28;20222;-76
2022/11/14 02:04:06;;;;;;;2.83;1.90;;;11.40;99.90;;;;;;5094051;28;20077;-76
2022/11/14 02:06:32;;;;;;;1.92;1.75;;;11.40;99.90;;;;;;5092391;28;20031;-76
2022/11/14 02:09:01;;;;;;;2.00;1.67;;;11.30;99.90;;;;;;5093504;28;20104;-76
2022/11/14 02:11:33;;;;;;;1.70;1.60;;;11.30;99.90;;;;;;5093378;28;20020;-76
2022/11/14 02:14:00;;;;;;;1.70;1.60;;;11.30;99.90;;;;;;5093633;28;20031;-75
2022/11/14 02:16:26;;;;;;;3.53;1.90;;;11.30;99.90;;;;;;5093619;28;20489;-76
2022/11/14 02:18:52;;;;;;;2.80;1.70;;;11.20;99.90;;;;;;5093594;28;20029;-76
2022/11/14 02:21:18;;;;;;;1.80;1.50;;;11.20;99.90;;;;;;5092015;28;20027;-76
2022/11/14 02:23:43;;;;;;;1.80;1.70;;;11.20;99.90;;;;;;5092461;28;20054;-76
2022/11/14 02:26:09;;;;;;;1.65;1.55;;;11.20;99.90;;;;;;5093236;28;20485;-76
2022/11/14 02:28:35;;;;;;;2.08;1.88;;;11.30;99.90;;;;;;5092863;28;20485;-76
2022/11/14 02:31:01;;;;;;;4.97;2.03;;;11.30;99.90;;;;;;5093254;28;20020;-76
2022/11/14 02:33:26;;;;;;;2.10;1.88;;;11.40;99.90;;;;;;5093267;28;20470;-76
2022/11/14 02:35:52;;;;;;;2.28;2.08;;;11.40;99.90;;;;;;5093064;28;20027;-76
2022/11/14 02:38:18;;;;;;;1.88;1.63;;;11.40;99.90;;;;;;5091437;28;20091;-75
2022/11/14 02:40:44;;;;;;;1.77;1.67;;;11.40;99.90;;;;;;5091737;28;20119;-76
2022/11/14 02:43:10;;;;;;;2.25;1.73;;;11.30;99.90;;;;;;5104861;28;20036;-75
2022/11/14 02:45:35;;;;;;;1.77;1.67;;;11.30;99.90;;;;;;5091591;28;20032;-76
2022/11/14 02:48:01;;;;;;;2.20;2.00;;;11.40;99.90;;;;;;5093014;28;20095;-77
2022/11/14 02:50:27;;;;;;;3.47;2.05;;;11.30;99.90;;;;;;5092675;28;20404;-76
2022/11/14 02:52:52;;;;;;;2.53;1.50;;;11.40;99.90;;;;;;5092764;28;20047;-76
2022/11/14 02:55:19;;;;;;;2.10;1.73;;;11.30;99.90;;;;;;5093004;28;20107;-75
2022/11/14 02:57:45;;;;;;;1.98;1.60;;;11.30;99.90;;;;;;5091543;28;20502;-76
2022/11/14 03:00:11;;;;;;;1.63;1.52;;;11.40;99.90;;;;;;5092698;28;20094;-75
2022/11/14 03:02:37;;;;;;;3.40;1.67;;;11.40;99.90;;;;;;5092647;28;20028;-75
2022/11/14 03:05:03;;;;;;;2.03;1.67;;;11.50;99.90;;;;;;5092691;28;20106;-76
2022/11/14 03:07:29;;;;;;;1.95;1.75;;;11.50;99.90;;;;;;5092621;28;20045;-76
2022/11/14 03:09:54;;;;;;;2.03;1.83;;;11.50;99.90;;;;;;5091320;28;20031;-76
2022/11/14 03:12:20;;;;;;;1.90;1.67;;;11.40;99.90;;;;;;5092353;28;20028;-75
2022/11/14 03:14:46;;;;;;;1.50;1.40;;;11.50;99.90;;;;;;5092710;28;20065;-75
2022/11/14 03:17:11;;;;;;;1.80;1.70;;;11.40;99.90;;;;;;5092615;28;20029;-76
2022/11/14 03:19:37;;;;;;;2.13;1.90;;;11.40;99.90;;;;;;5090862;28;20020;-75
2022/11/14 03:22:03;;;;;;;1.80;1.70;;;11.50;99.90;;;;;;5092273;28;20482;-76
2022/11/14 03:24:29;;;;;;;1.70;1.60;;;11.50;99.90;;;;;;5092071;28;20043;-76
2022/11/14 03:26:55;;;;;;;1.60;1.30;;;11.50;99.90;;;;;;5092140;28;20554;-76
2022/11/14 03:29:20;;;;;;;2.00;1.60;;;11.50;99.90;;;;;;5092793;28;20020;-75
2022/11/14 03:31:46;;;;;;;2.78;1.83;;;11.50;99.90;;;;;;5092420;28;20416;-75
2022/11/14 03:34:12;;;;;;;1.83;1.50;;;11.50;99.90;;;;;;5092097;28;20481;-76
2022/11/14 03:36:37;;;;;;;1.50;1.40;;;11.50;99.90;;;;;;5092456;28;20351;-76
2022/11/14 03:39:04;;;;;;;2.03;1.40;;;11.40;99.90;;;;;;5096035;28;20485;-75
2022/11/14 03:41:30;;;;;;;1.52;1.42;;;11.40;99.90;;;;;;5102738;28;20512;-76
2022/11/14 03:43:56;;;;;;;1.38;1.27;;;11.40;99.90;;;;;;5105220;27;20024;-75
2022/11/14 03:46:22;;;;;;;2.85;1.50;;;11.40;99.90;;;;;;5097653;28;20027;-75
2022/11/14 03:48:47;;;;;;;1.30;1.17;;;11.40;99.90;;;;;;5098848;28;20012;-75
2022/11/14 03:51:13;;;;;;;1.50;1.40;;;11.30;99.90;;;;;;5098664;28;20032;-75
2022/11/14 03:53:39;;;;;;;1.65;1.55;;;11.30;99.90;;;;;;5098835;28;20473;-75
2022/11/14 03:56:04;;;;;;;1.80;1.70;;;11.40;99.90;;;;;;5099115;28;20024;-75
2022/11/14 03:58:30;;;;;;;1.60;1.50;;;11.40;99.90;;;;;;5098967;28;20481;-75
2022/11/14 04:00:56;;;;;;;1.52;1.42;;;11.50;99.90;;;;;;5098821;28;20433;-75
2022/11/14 04:03:23;;;;;;;3.90;1.55;;;11.50;99.90;;;;;;5099119;28;20465;-75
2022/11/14 04:05:49;;;;;;;1.65;1.55;;;11.50;99.90;;;;;;5098584;28;20028;-75
2022/11/14 04:08:15;;;;;;;2.60;1.65;;;11.50;99.90;;;;;;5098833;28;20074;-75
2022/11/14 04:10:41;;;;;;;2.10;1.67;;;11.50;99.90;;;;;;5098664;28;20024;-75
2022/11/14 04:13:07;;;;;;;2.60;1.70;;;11.50;99.90;;;;;;5098515;28;20024;-75
2022/11/14 04:15:33;;;;;;;2.58;1.67;;;11.50;99.90;;;;;;5098732;28;20020;-76
2022/11/14 04:17:59;;;;;;;2.05;1.60;;;11.50;99.90;;;;;;5098665;28;20442;-76
2022/11/14 04:20:25;;;;;;;1.33;1.23;;;11.50;99.90;;;;;;5097051;28;20028;-75
2022/11/14 04:22:51;;;;;;;1.85;1.52;;;11.50;99.90;;;;;;5098568;28;20500;-76
2022/11/14 04:25:16;;;;;;;1.88;1.77;;;11.50;99.90;;;;;;5098525;28;20386;-75
2022/11/14 04:27:42;;;;;;;1.67;1.58;;;11.50;99.90;;;;;;5098514;28;20434;-75
2022/11/14 04:30:08;;;;;;;1.60;1.50;;;11.50;99.90;;;;;;5098609;28;20036;-75
2022/11/14 04:32:34;;;;;;;2.55;1.70;;;11.50;99.90;;;;;;5098323;28;20028;-75
2022/11/14 04:35:00;;;;;;;1.60;1.50;;;11.50;99.90;;;;;;5098049;28;20390;-75
2022/11/14 04:37:26;;;;;;;1.60;1.50;;;11.50;99.90;;;;;;5098443;28;20027;-75
2022/11/14 04:39:52;;;;;;;2.17;1.50;;;11.50;99.90;;;;;;5098507;28;20529;-76
2022/11/14 04:42:17;;;;;;;2.08;1.70;;;11.50;99.90;;;;;;5110469;28;20020;-75
2022/11/14 04:44:43;;;;;;;1.92;1.42;;;11.50;99.90;;;;;;5098430;28;20036;-75
2022/11/14 04:47:08;;;;;;;1.63;1.42;;;11.50;99.90;;;;;;5098467;28;20081;-75
2022/11/14 04:49:34;;;;;;;2.75;1.70;;;11.40;99.90;;;;;;5095188;28;20134;-75
2022/11/14 04:52:00;;;;;;;1.83;1.55;;;11.50;99.90;;;;;;5093687;28;20081;-75
2022/11/14 04:54:26;;;;;;;2.10;1.77;;;11.50;99.90;;;;;;5095174;28;20025;-75
2022/11/14 04:56:51;;;;;;;1.75;1.65;;;11.30;99.90;;;;;;5095228;28;20047;-75
2022/11/14 04:59:17;;;;;;;2.45;2.25;;;11.40;99.90;;;;;;5095360;28;20027;-75
2022/11/14 05:01:43;;;;;;;2.05;1.60;;;11.40;99.90;;;;;;5093633;28;20016;-75
2022/11/14 05:04:08;;;;;;;1.88;1.45;;;11.50;99.90;;;;;;5094625;28;20031;-75
2022/11/14 05:06:34;;;;;;;2.10;1.88;;;11.40;99.90;;;;;;5095178;28;20032;-76
2022/11/14 05:08:59;;;;;;;1.63;1.52;;;11.30;99.90;;;;;;5094849;28;20035;-75
2022/11/14 05:11:25;;;;;;;2.35;2.00;;;11.30;99.90;;;;;;5094499;28;20063;-75
2022/11/14 05:13:51;;;;;;;1.80;1.70;;;11.40;99.90;;;;;;5094545;28;20090;-75
2022/11/14 05:16:17;;;;;;;2.40;1.48;;;11.40;99.90;;;;;;5094619;28;20481;-75
2022/11/14 05:18:43;;;;;;;2.78;1.63;;;11.40;99.90;;;;;;5094705;28;20478;-75
2022/11/14 05:21:13;;;;;;;2.15;1.52;;;11.40;99.90;;;;;;5094594;28;20043;-75
2022/11/14 05:23:39;;;;;;;2.05;1.75;;;11.40;99.90;;;;;;5094100;28;20089;-75
2022/11/14 05:26:10;;;;;;;1.90;1.70;;;11.40;99.90;;;;;;5094506;28;20036;-75
2022/11/14 05:28:35;;;;;;;1.50;1.40;;;11.30;99.90;;;;;;5094450;28;20057;-75
2022/11/14 05:31:06;;;;;;;1.80;1.70;;;11.30;99.90;;;;;;5094361;28;20106;-75
2022/11/14 05:33:33;;;;;;;2.42;1.95;;;11.40;99.90;;;;;;5094217;28;20039;-75
2022/11/14 05:36:07;;;;;;;1.80;1.30;;;11.40;99.90;;;;;;5092741;28;20028;-76
2022/11/14 05:38:34;;;;;;;2.42;1.70;;;11.30;99.90;;;;;;5094325;28;20134;-75
2022/11/14 05:41:08;;;;;;;2.03;1.80;;;11.30;99.90;;;;;;5094050;28;20077;-75
2022/11/14 05:43:34;;;;;;;2.10;1.80;;;11.30;99.90;;;;;;5103367;28;20027;-75
2022/11/14 05:46:01;;;;;;;1.80;1.63;;;11.30;99.90;;;;;;5094002;28;20024;-75
2022/11/14 05:48:28;;;;;;;2.75;1.90;;;11.30;99.90;;;;;;5094249;28;20024;-75
2022/11/14 05:50:58;;;;;;;2.58;1.77;;;11.20;99.90;;;;;;5093707;28;20027;-75
2022/11/14 05:53:24;;;;;;;2.92;1.85;;;11.10;99.90;;;;;;5092717;28;20503;-75
2022/11/14 05:55:50;;;;;;;3.10;1.70;;;11.10;99.90;;;;;;5093905;28;20102;-75
2022/11/14 05:58:16;;;;;;;1.70;1.60;;;11.10;99.90;;;;;;5092418;28;20081;-75
2022/11/14 06:00:41;;;;;;;3.08;1.85;;;11.10;99.90;;;;;;5093722;28;20024;-75
2022/11/14 06:03:07;;;;;;;2.22;1.80;;;11.00;99.90;;;;;;5093529;28;20548;-75
2022/11/14 06:05:34;;;;;;;1.80;1.63;;;11.10;99.90;;;;;;5093763;28;20024;-75
2022/11/14 06:08:01;;;;;;;2.42;1.60;;;11.10;99.90;;;;;;5092336;28;20028;-75
2022/11/14 06:10:27;;;;;;;1.73;1.38;;;11.00;99.90;;;;;;5092436;28;20024;-75
2022/11/14 06:12:52;;;;;;;1.52;1.42;;;11.00;99.90;;;;;;5093323;28;20032;-75
2022/11/14 06:15:18;;;;;;;4.28;2.38;;;11.00;99.90;;;;;;5093412;28;20494;-75
2022/11/14 06:17:44;;;;;;;1.70;1.52;;;10.90;99.90;;;;;;5093504;28;20035;-75
2022/11/14 06:20:12;;;;;;;1.77;1.60;;;10.90;99.90;;;;;;5093399;28;20023;-75
2022/11/14 06:22:41;;;;;;;1.60;1.50;;;10.90;99.90;;;;;;5093820;28;20077;-75
2022/11/14 06:25:08;;;;;;;2.45;1.70;;;10.90;99.90;;;;;;5091845;28;20044;-75
2022/11/14 06:27:34;;;;;;;1.83;1.73;;;10.90;99.90;;;;;;5093125;28;20089;-75
2022/11/14 06:29:59;;;;;;;3.35;1.80;;;10.90;99.90;;;;;;5093207;28;20024;-75
2022/11/14 06:32:25;;;;;;;2.15;1.73;;;10.80;99.90;;;;;;5093369;28;20371;-75
2022/11/14 06:34:51;;;;;;;2.20;2.10;;;10.90;99.90;;;;;;5092840;28;20427;-75
2022/11/14 06:37:16;;;;;;;3.90;2.05;;;10.90;99.90;;;;;;5091996;28;20031;-75
2022/11/14 06:39:42;;;;;;;2.50;2.00;;;10.90;99.90;;;;;;5091839;28;20024;-75
2022/11/14 06:42:08;;;;;;;2.30;1.90;;;10.80;99.90;;;;;;5104291;28;20019;-75
2022/11/14 06:44:33;;;;;;;2.80;2.00;;;10.90;99.90;;;;;;5093827;28;20115;-74
2022/11/14 06:46:59;;;;;;;2.08;1.92;;;10.90;99.90;;;;;;5092950;28;20067;-75
2022/11/14 06:49:26;;;;;;;3.10;2.00;;;10.80;99.90;;;;;;5093083;28;20016;-75
2022/11/14 06:51:52;;;;;;;3.53;2.42;;;10.90;99.90;;;;;;5093117;28;20024;-75
2022/11/14 06:54:18;;;;;;;2.97;1.95;;;10.90;99.90;;;;;;5092861;28;20020;-75
2022/11/14 06:56:44;;;;;;;3.13;2.20;;;10.90;99.90;;;;;;5091545;28;20507;-75
2022/11/14 06:59:10;;;;;;;3.38;2.10;;;10.90;99.90;;;;;;5092642;28;20024;-75
2022/11/14 07:01:36;;;;;;;2.30;2.10;;;11.00;99.90;;;;;;5092766;28;20028;-75
2022/11/14 07:04:01;;;;;;;2.35;2.13;;;11.00;99.90;;;;;;5092919;28;20355;-75
2022/11/14 07:06:29;;;;;;;2.65;1.90;;;11.00;99.90;;;;;;5092681;28;20051;-74
2022/11/14 07:08:56;;;;;;;3.10;2.22;;;11.00;99.90;;;;;;5092721;28;20103;-75
2022/11/14 07:11:25;;;;;;;3.17;2.28;;;11.00;99.90;;;;;;5092788;28;20103;-75
2022/11/14 07:13:55;;;;;;;2.63;1.90;;;11.00;99.90;;;;;;5090253;28;20550;-74
2022/11/14 07:16:30;;;;;;;2.42;2.15;;;11.00;99.90;;;;;;5092362;28;20054;-75
2022/11/14 07:18:57;;;;;;;2.40;2.20;;;10.90;99.90;;;;;;5091137;28;20473;-75
2022/11/14 07:21:23;;;;;;;3.90;2.22;;;10.80;99.90;;;;;;5092493;28;20028;-75
2022/11/14 07:23:49;;;;;;;2.97;2.30;;;10.80;99.90;;;;;;5092313;28;20043;-75
2022/11/14 07:26:15;;;;;;;2.53;1.85;;;10.90;99.90;;;;;;5092298;28;20117;-75
2022/11/14 07:28:42;;;;;;;3.30;2.28;;;10.80;99.90;;;;;;5092325;28;20024;-74
2022/11/14 07:31:13;;;;;;;2.40;2.05;;;10.80;99.90;;;;;;5092319;28;20020;-75
2022/11/14 07:33:40;;;;;;;2.05;1.88;;;10.80;99.90;;;;;;5092451;28;20024;-75
2022/11/14 07:36:07;;;;;;;2.45;2.25;;;10.80;99.90;;;;;;5092216;28;20024;-75
2022/11/14 07:38:34;;;;;;;1.98;1.85;;;10.80;99.90;;;;;;5092417;28;20055;-75
2022/11/14 07:41:02;;;;;;;1.90;1.80;;;10.90;99.90;;;;;;5092030;28;20020;-75
2022/11/14 07:43:28;;;;;;;2.17;1.77;;;10.90;99.90;;;;;;5102702;28;20115;-75
2022/11/14 07:45:58;;;;;;;2.10;1.67;;;10.90;99.90;;;;;;5092306;28;20035;-75
2022/11/14 07:48:24;;;;;;;2.47;2.28;;;11.10;99.90;;;;;;5092496;28;20019;-75
2022/11/14 07:50:50;;;;;;;2.83;2.47;;;11.20;99.90;;;;;;5091825;28;20028;-75
2022/11/14 07:53:16;;;;;;;2.67;2.47;;;11.30;99.90;;;;;;5092426;28;20500;-75
2022/11/14 07:55:42;;;;;;;3.85;2.10;;;11.50;99.90;;;;;;5090681;28;20054;-75
2022/11/14 07:58:08;;;;;;;3.05;2.75;;;11.50;99.90;;;;;;5091941;28;20016;-75
2022/11/14 08:00:34;;;;;;;3.05;2.50;;;11.60;99.90;;;;;;5092152;28;20482;-75
2022/11/14 08:03:00;;;;;;;2.40;2.20;;;11.60;99.90;;;;;;5092123;28;20013;-75
2022/11/14 08:05:26;;;;;;;2.85;2.42;;;11.70;99.90;;;;;;5091857;28;20572;-75
2022/11/14 08:07:52;;;;;;;2.55;2.35;;;11.80;99.90;;;;;;5090661;28;20024;-75
2022/11/14 08:10:18;;;;;;;5.65;3.92;;;11.90;99.90;;;;;;5092104;28;20024;-75
2022/11/14 08:12:45;;;;;;;7.03;5.13;;;12.10;99.90;;;;;;5091500;28;20036;-75
2022/11/14 08:15:12;;;;;;;10.18;6.97;;;12.20;99.90;;;;;;5091940;28;20020;-75
2022/11/14 08:17:38;;;;;;;12.13;7.22;;;12.20;99.90;;;;;;5091866;28;20024;-75
2022/11/14 08:20:06;;;;;;;11.07;7.50;;;12.20;99.90;;;;;;5091948;28;20144;-75
2022/11/14 08:22:31;;;;;;;11.68;7.72;;;12.30;99.90;;;;;;5090686;28;20024;-75
2022/11/14 08:24:57;;;;;;;7.93;6.22;;;12.40;99.90;;;;;;5091529;28;20051;-75
2022/11/14 08:27:23;;;;;;;10.02;6.05;;;12.60;99.90;;;;;;5094370;28;20024;-75
2022/11/14 08:29:50;;;;;;;7.57;5.85;;;12.70;99.90;;;;;;5094533;28;20595;-75
2022/11/14 08:32:16;;;;;;;7.93;5.78;;;13.00;99.90;;;;;;5095718;28;20043;-75
2022/11/14 08:34:42;;;;;;;8.25;5.35;;;13.20;99.90;;;;;;5095694;28;20107;-75
2022/11/14 08:37:08;;;;;;;7.13;5.25;;;13.50;99.90;;;;;;5095637;28;20111;-75
2022/11/14 08:39:34;;;;;;;6.55;4.75;;;13.70;99.90;;;;;;5095285;28;20443;-75
2022/11/14 08:41:59;;;;;;;5.75;4.30;;;13.80;99.90;;;;;;5104943;28;20026;-75
2022/11/14 08:44:25;;;;;;;6.55;4.50;;;14.00;99.90;;;;;;5097789;28;20039;-76
2022/11/14 08:46:51;;;;;;;6.75;5.07;;;14.00;99.90;;;;;;5095209;28;20496;-75
2022/11/14 08:49:16;;;;;;;7.95;5.32;;;14.00;99.90;;;;;;5095377;28;20106;-76
2022/11/14 08:51:42;;;;;;;6.65;5.03;;;13.90;99.90;;;;;;5095115;28;20538;-75
2022/11/14 08:54:08;;;;;;;6.25;4.75;;;13.80;99.90;;;;;;5094750;28;20448;-75
2022/11/14 08:56:33;;;;;;;5.57;4.68;;;13.90;99.90;;;;;;5095409;28;20474;-76
2022/11/14 08:59:02;;;;;;;6.60;5.53;;;14.00;99.90;;;;;;5095204;28;20024;-76
2022/11/14 09:01:28;;;;;;;8.35;5.97;;;14.40;99.90;;;;;;5095127;28;20020;-76
2022/11/14 09:03:54;;;;;;;7.25;5.30;;;14.90;99.90;;;;;;5094946;28;20016;-76
2022/11/14 09:06:19;;;;;;;7.32;5.30;;;15.80;99.90;;;;;;5094806;28;20020;-76
2022/11/14 09:08:45;;;;;;;7.18;5.60;;;16.20;99.90;;;;;;5094884;28;20154;-76
2022/11/14 09:11:11;;;;;;;5.55;4.93;;;16.00;99.90;;;;;;5094550;28;20039;-76
2022/11/14 09:13:37;;;;;;;6.38;5.40;;;15.50;99.90;;;;;;5094628;28;20052;-76
2022/11/14 09:16:02;;;;;;;5.78;5.15;;;15.20;99.90;;;;;;5094896;28;20553;-76
2022/11/14 09:18:29;;;;;;;5.25;4.63;;;15.00;99.90;;;;;;5094544;28;20028;-76
2022/11/14 09:21:03;;;;;;;5.78;5.18;;;14.90;99.90;;;;;;5094344;28;20024;-76
2022/11/14 09:23:29;;;;;;;7.20;5.50;;;14.80;99.90;;;;;;5092786;28;20046;-77
2022/11/14 09:25:55;;;;;;;7.95;5.57;;;14.80;99.90;;;;;;5086999;28;20490;-76
2022/11/14 09:28:23;;;;;;;6.82;5.55;;;14.80;99.90;;;;;;5074181;28;20053;-76
2022/11/14 09:30:49;;;;;;;6.38;5.75;;;14.90;99.90;;;;;;5074139;28;20551;-76
2022/11/14 09:33:15;;;;;;;7.03;6.32;;;15.00;99.90;;;;;;5074316;28;20040;-76
2022/11/14 09:35:41;;;;;;;5.75;4.97;;;15.10;99.90;;;;;;5073357;28;20086;-76
2022/11/14 09:38:09;;;;;;;9.50;6.30;;;15.20;99.90;;;;;;5073613;28;20078;-76
2022/11/14 09:41:07;;;;;;;9.95;6.90;;;15.20;99.90;;;;;;5106667;28;20028;-76
2022/11/14 09:44:00;;;;;;;7.85;5.82;;;15.30;99.90;;;;;;5062086;28;20033;-76
2022/11/14 09:46:48;;;;;;;9.57;6.22;;;15.20;99.90;;;;;;5073575;28;20025;-76
2022/11/14 09:49:29;;;;;;;7.25;5.60;;;15.20;99.90;;;;;;5059382;28;20032;-76
2022/11/14 09:52:09;;;;;;;7.90;6.20;;;15.20;99.90;;;;;;5094241;28;20024;-76
2022/11/14 09:54:54;;;;;;;6.75;6.05;;;15.20;99.90;;;;;;5092523;28;20038;-76
2022/11/14 09:57:20;;;;;;;9.02;6.00;;;15.30;99.90;;;;;;5092614;28;20020;-76
2022/11/14 09:59:48;;;;;;;6.43;5.72;;;15.30;99.90;;;;;;5094001;28;20024;-76
2022/11/14 10:02:19;;;;;;;7.35;5.68;;;15.30;99.90;;;;;;5094029;28;20082;-77
2022/11/14 10:05:00;;;;;;;;;;;15.30;99.90;;;;;;5093977;28;20031;-77
2022/11/14 10:07:56;;;;;;;9.60;6.10;;;15.40;99.90;;;;;;5093850;28;19930;-76
2022/11/14 10:10:28;;;;;;;6.15;5.53;;;15.50;99.90;;;;;;5092317;28;20034;-76
2022/11/14 10:13:20;;;;;;;8.52;5.63;;;15.60;99.90;;;;;;5093466;28;20028;-76
2022/11/14 10:16:04;;;;;;;5.97;5.47;;;15.60;99.90;;;;;;5093347;28;20032;-76
2022/11/14 10:18:32;;;;;;;6.05;5.45;;;15.70;99.90;;;;;;5092064;28;20069;-76
2022/11/14 10:21:09;;;;;;;6.43;5.57;;;15.70;99.90;;;;;;5093001;28;20024;-76
2022/11/14 10:23:56;;;;;;;7.28;6.28;;;15.70;99.90;;;;;;5093159;28;20064;-77
2022/11/14 10:26:29;;;;;;;7.45;6.18;;;15.80;99.90;;;;;;5084940;28;20024;-76
2022/11/14 10:29:39;;;;;;;7.00;6.30;;;15.80;99.90;;;;;;5073232;28;20024;-76
2022/11/14 10:32:23;;;;;;;9.88;6.68;;;15.80;99.90;;;;;;5060130;28;20112;-77
2022/11/14 10:35:09;;;;;;;7.45;6.55;;;15.70;99.90;;;;;;5071132;28;20028;-77
2022/11/14 10:38:05;;;;;;;8.15;6.47;;;15.70;99.90;;;;;;5072666;28;20066;-76
2022/11/14 10:40:44;;;;;;;6.97;6.18;;;15.60;99.90;;;;;;5072576;28;20021;-76
2022/11/14 10:43:40;;;;;;;7.53;6.68;;;15.60;99.90;;;;;;5110509;28;20026;-76
2022/11/14 10:46:28;;;;;;;8.77;6.97;;;15.50;99.90;;;;;;5113603;28;20098;-77
2022/11/14 10:48:54;;;;;;;6.25;5.65;;;15.40;99.90;;;;;;5112507;28;20024;-77
2022/11/14 10:51:37;;;;;;;6.88;5.82;;;15.40;99.90;;;;;;5092402;28;20020;-76
2022/11/14 10:54:53;;;;;;;6.13;5.63;;;15.40;99.90;;;;;;5092873;28;20051;-76
2022/11/14 10:57:21;;;;;;;6.60;5.90;;;15.30;99.90;;;;;;5013763;28;20545;-76
2022/11/14 10:59:47;;;;;;;5.63;5.07;;;15.30;99.90;;;;;;5029971;28;20038;-77
2022/11/14 11:02:13;;;;;;;5.57;5.07;;;15.20;99.90;;;;;;5013787;28;20151;-76
2022/11/14 11:04:41;;;;;;;5.97;4.90;;;15.10;99.90;;;;;;5029649;28;20029;-76
2022/11/14 11:07:06;;;;;;;5.63;5.13;;;15.10;99.90;;;;;;5013550;28;20048;-76
2022/11/14 11:12:23;;;;;;;5.10;4.60;;;15.10;99.90;;;;;;5030158;28;20550;-75
2022/11/14 11:15:06;;;;;;;;;;;15.10;99.90;;;;;;5030138;28;20062;-76
2022/11/14 11:17:32;;;;;;;5.32;4.82;;;15.20;99.90;;;;;;5013437;28;19933;-76
2022/11/14 11:20:20;;;;;;;5.45;4.95;;;15.30;99.90;;;;;;5029275;28;20033;-76
2022/11/14 11:22:47;;;;;;;5.60;4.93;;;15.50;99.90;;;;;;5029892;28;20026;-76
2022/11/14 11:25:26;;;;;;;4.88;4.32;;;15.50;99.90;;;;;;5029666;28;20057;-76
2022/11/14 11:28:14;;;;;;;6.22;4.95;;;15.70;99.90;;;;;;5010120;28;20048;-76
2022/11/14 11:30:53;;;;;;;5.10;4.60;;;15.80;99.90;;;;;;5010138;28;20034;-76
2022/11/14 11:33:18;;;;;;;5.05;4.65;;;15.80;99.90;;;;;;5051945;28;20132;-76
2022/11/14 11:35:47;;;;;;;5.20;4.57;;;15.90;99.90;;;;;;5070046;28;20111;-76
2022/11/14 11:38:15;;;;;;;4.50;4.07;;;16.00;99.90;;;;;;5070790;28;20032;-76
2022/11/14 11:40:43;;;;;;;5.97;4.78;;;16.10;99.90;;;;;;5072251;28;20025;-76
2022/11/14 11:43:31;;;;;;;6.35;5.75;;;16.10;99.90;;;;;;5110795;28;20035;-77
2022/11/14 11:46:01;;;;;;;5.97;5.35;;;16.20;99.90;;;;;;5112574;28;20030;-76
2022/11/14 11:48:38;;;;;;;6.13;5.38;;;16.30;99.90;;;;;;5112628;28;20028;-76
2022/11/14 11:51:08;;;;;;;8.02;5.38;;;16.20;99.90;;;;;;5094309;28;20081;-77
2022/11/14 11:53:41;;;;;;;7.07;6.10;;;16.20;99.90;;;;;;5092127;28;20032;-76
2022/11/14 11:56:25;;;;;;;7.35;6.20;;;16.30;99.90;;;;;;5092157;28;20031;-76
2022/11/14 11:58:57;;;;;;;6.60;5.93;;;16.20;99.90;;;;;;5092348;28;20036;-76
2022/11/14 12:01:23;;;;;;;7.57;6.78;;;16.30;99.90;;;;;;5094971;28;20111;-77
2022/11/14 12:03:51;;;;;;;7.53;6.53;;;16.40;99.90;;;;;;5096216;28;20032;-76
2022/11/14 12:06:26;;;;;;;7.85;6.85;;;16.40;99.90;;;;;;5094305;28;20130;-76
2022/11/14 12:09:03;;;;;;;9.38;7.22;;;16.30;99.90;;;;;;5096348;28;20035;-76
2022/11/14 12:11:33;;;;;;;6.85;6.15;;;16.30;99.90;;;;;;5095860;28;20031;-76
2022/11/14 12:14:17;;;;;;;8.57;6.95;;;16.40;99.90;;;;;;5096084;28;20036;-76
2022/11/14 12:17:31;;;;;;;9.05;7.47;;;16.40;99.90;;;;;;5095895;28;20024;-76
2022/11/14 12:20:07;;;;;;;7.13;6.22;;;16.40;99.90;;;;;;5033191;28;20491;-76
2022/11/14 12:22:51;;;;;;;6.57;5.78;;;16.30;99.90;;;;;;5033049;28;20061;-76
2022/11/14 12:25:54;;;;;;;10.68;7.47;;;16.40;99.90;;;;;;5032902;28;20049;-76
2022/11/14 12:28:49;;;;;;;8.77;7.88;;;16.40;99.90;;;;;;4954950;29;20501;-76
2022/11/14 12:31:16;;;;;;;9.00;8.10;;;16.30;99.90;;;;;;4955003;29;20124;-76
2022/11/14 12:33:57;;;;;;;10.27;7.82;;;16.20;99.90;;;;;;4954755;29;20031;-77
2022/11/14 12:36:32;;;;;;;9.73;8.70;;;16.10;99.90;;;;;;4938416;29;20051;-77
2022/11/14 12:38:59;;;;;;;10.23;7.57;;;16.10;99.90;;;;;;4954819;29;20035;-76
2022/11/14 12:41:35;;;;;;;10.32;7.82;;;16.00;99.90;;;;;;4938399;29;20027;-76
2022/11/14 12:44:25;;;;;;;10.98;8.32;;;16.00;99.90;;;;;;4954754;29;20035;-76
2022/11/14 12:47:03;;;;;;;9.95;7.88;;;16.00;99.90;;;;;;4954466;29;20055;-76
2022/11/14 12:49:58;;;;;;;10.18;8.25;;;16.00;99.90;;;;;;4962560;28;20034;-76
2022/11/14 12:52:44;;;;;;;9.80;8.80;;;15.90;99.90;;;;;;5032314;28;20033;-76
2022/11/14 12:55:25;;;;;;;10.20;9.00;;;15.90;99.90;;;;;;5015922;28;20044;-76
2022/11/14 12:58:10;;;;;;;12.48;10.48;;;15.90;99.90;;;;;;5032556;28;20036;-76
2022/11/14 13:01:07;;;;;;;13.63;11.00;;;15.80;99.90;;;;;;5015719;28;20026;-77
2022/11/14 13:03:48;;;;;;;15.70;10.88;;;15.70;99.90;;;;;;5075001;28;20035;-76